Time;durP1;ratioP1;P1;durP2;ratioP2;P2;SDS_P1;SDS_P2;PMS_P1;PMS_P2;Temp;Humidity;BMP_temperature;BMP_pressure;BME280_temperature;BME280_humidity;BME280_pressure;Samples;Min_cycle;Max_cycle;Signal;HPM_P1;HPM_P2
2021/06/23 00:00:28;;;;;;;;;;;;;;;18.58;50.37;101837.91;5078339;28;2247;-59
2021/06/23 00:02:53;;;;;;;;;;;;;;;18.56;50.49;101834.47;5078420;28;900;-58
2021/06/23 00:05:18;;;;;;;;;;;;;;;18.56;50.40;101833.63;5078408;28;849;-59
2021/06/23 00:07:43;;;;;;;;;;;;;;;18.55;50.41;101831.91;5078384;28;845;-59
2021/06/23 00:10:08;;;;;;;;;;;;;;;18.54;50.42;101835.59;5078256;28;1939;-58
2021/06/23 00:12:33;;;;;;;;;;;;;;;18.53;50.17;101826.63;5078569;28;1902;-59
2021/06/23 00:14:58;;;;;;;;;;;;;;;18.56;50.33;101833.63;5077687;28;978;-59
2021/06/23 00:17:23;;;;;;;;;;;;;;;18.54;50.61;101841.00;5078614;28;1459;-59
2021/06/23 00:19:48;;;;;;;;;;;;;;;18.54;50.37;101839.16;5077849;28;2033;-59
2021/06/23 00:22:14;;;;;;;;;;;;;;;18.53;50.16;101831.16;5077888;28;1052;-58
2021/06/23 00:24:39;;;;;;;;;;;;;;;18.53;50.37;101836.56;5078239;28;853;-58
2021/06/23 00:27:04;;;;;;;;;;;;;;;18.52;50.56;101830.31;5078522;28;1012;-57
2021/06/23 00:29:29;;;;;;;;;;;;;;;18.51;50.84;101834.00;5059215;28;1903;-58
2021/06/23 00:31:55;;;;;;;;;;;;;;;18.50;50.33;101834.97;5077345;28;1898;-58
2021/06/23 00:34:20;;;;;;;;;;;;;;;18.50;50.67;101829.56;5077578;28;1001;-57
2021/06/23 00:36:45;;;;;;;;;;;;;;;18.50;50.56;101842.22;5078040;28;953;-57
2021/06/23 00:39:10;;;;;;;;;;;;;;;18.50;50.31;101839.50;5077597;28;1873;-56
2021/06/23 00:41:35;;;;;;;;;;;;;;;18.51;50.63;101846.63;5059413;28;1255;-56
2021/06/23 00:44:00;;;;;;;;;;;;;;;18.49;51.12;101851.28;5077523;28;2102;-58
2021/06/23 00:46:25;;;;;;;;;;;;;;;18.49;50.68;101849.47;5077600;28;1974;-57
2021/06/23 00:48:51;;;;;;;;;;;;;;;18.47;50.48;101845.16;5077476;28;885;-57
2021/06/23 00:51:16;;;;;;;;;;;;;;;18.46;50.55;101844.31;5076954;28;1985;-57
2021/06/23 00:53:41;;;;;;;;;;;;;;;18.47;50.49;101847.84;5077748;28;1119;-57
2021/06/23 00:56:06;;;;;;;;;;;;;;;18.46;50.71;101838.91;5077653;28;917;-57
2021/06/23 00:58:31;;;;;;;;;;;;;;;18.48;50.58;101836.09;5077639;28;1882;-56
2021/06/23 01:00:56;;;;;;;;;;;;;;;18.45;50.79;101839.88;5077102;28;940;-55
2021/06/23 01:03:21;;;;;;;;;;;;;;;18.44;50.63;101842.75;5077162;28;1985;-56
2021/06/23 01:05:46;;;;;;;;;;;;;;;18.42;50.83;101839.31;5077365;28;851;-55
2021/06/23 01:08:11;;;;;;;;;;;;;;;18.45;50.75;101833.66;5076840;28;1359;-58
2021/06/23 01:10:36;;;;;;;;;;;;;;;18.45;50.64;101833.66;5077110;28;957;-55
2021/06/23 01:13:02;;;;;;;;;;;;;;;18.43;50.41;101828.38;5077432;28;1969;-56
2021/06/23 01:15:27;;;;;;;;;;;;;;;18.42;50.75;101832.06;5076686;28;2013;-57
2021/06/23 01:17:52;;;;;;;;;;;;;;;18.42;50.56;101836.59;5076876;28;870;-57
2021/06/23 01:20:17;;;;;;;;;;;;;;;18.43;50.63;101832.94;5076660;28;1005;-56
2021/06/23 01:22:43;;;;;;;;;;;;;;;18.44;50.46;101826.53;5076649;28;1855;-56
2021/06/23 01:25:10;;;;;;;;;;;;;;;18.42;50.64;101815.00;5077118;28;901;-57
2021/06/23 01:27:35;;;;;;;;;;;;;;;18.41;50.79;101816.84;5077385;28;830;-57
2021/06/23 01:30:00;;;;;;;;;;;;;;;18.41;51.18;101805.19;5076879;28;1004;-58
2021/06/23 01:32:25;;;;;;;;;;;;;;;18.39;50.57;101803.47;5076715;28;1973;-58
2021/06/23 01:34:50;;;;;;;;;;;;;;;18.42;50.65;101809.63;5076697;28;793;-58
2021/06/23 01:37:15;;;;;;;;;;;;;;;18.42;50.69;101804.22;5076859;28;1076;-58
2021/06/23 01:39:40;;;;;;;;;;;;;;;18.42;50.52;101809.63;5076513;28;1711;-58
2021/06/23 01:42:05;;;;;;;;;;;;;;;18.39;50.63;101798.09;5075971;28;1902;-58
2021/06/23 01:44:30;;;;;;;;;;;;;;;18.39;50.55;101806.19;5075912;28;2055;-57
2021/06/23 01:46:55;;;;;;;;;;;;;;;18.38;50.78;101809.88;5076133;28;894;-58
2021/06/23 01:49:21;;;;;;;;;;;;;;;18.39;51.06;101810.72;5076520;28;879;-58
2021/06/23 01:51:46;;;;;;;;;;;;;;;18.38;50.88;101814.41;5075631;28;1928;-57
2021/06/23 01:54:11;;;;;;;;;;;;;;;18.38;50.92;101820.66;5076597;28;1499;-57
2021/06/23 01:56:36;;;;;;;;;;;;;;;18.37;51.06;101821.66;5076228;28;1064;-58
2021/06/23 01:59:01;;;;;;;;;;;;;;;18.37;50.93;101821.66;5076234;28;925;-58
2021/06/23 02:01:26;;;;;;;;;;;;;;;18.37;51.08;101828.88;5075300;28;1887;-57
2021/06/23 02:03:51;;;;;;;;;;;;;;;18.36;51.25;101828.03;5076042;28;1076;-57
2021/06/23 02:06:16;;;;;;;;;;;;;;;18.35;51.16;101825.44;5058072;28;1270;-55
2021/06/23 02:08:41;;;;;;;;;;;;;;;18.36;51.34;101836.13;5076155;28;1193;-58
2021/06/23 02:11:06;;;;;;;;;;;;;;;18.35;51.35;101830.84;5075603;28;1957;-57
2021/06/23 02:13:31;;;;;;;;;;;;;;;18.34;51.33;101832.69;5075784;28;1017;-55
2021/06/23 02:15:56;;;;;;;;;;;;;;;18.33;51.29;101839.06;5075480;28;925;-57
2021/06/23 02:18:22;;;;;;;;;;;;;;;18.33;50.69;101841.75;5076285;28;1604;-57
2021/06/23 02:20:47;;;;;;;;;;;;;;;18.32;51.23;101848.13;5075555;28;2002;-53
2021/06/23 02:23:12;;;;;;;;;;;;;;;18.31;51.31;101835.63;5075900;28;866;-55
2021/06/23 02:25:37;;;;;;;;;;;;;;;18.33;51.37;101840.91;5076013;28;846;-58
2021/06/23 02:28:02;;;;;;;;;;;;;;;18.30;51.33;101847.41;5075853;28;839;-59
2021/06/23 02:30:27;;;;;;;;;;;;;;;18.29;51.37;101853.78;5075957;28;1080;-58
2021/06/23 02:32:52;;;;;;;;;;;;;;;18.27;51.38;101850.34;5075229;28;2020;-55
2021/06/23 02:35:17;;;;;;;;;;;;;;;18.27;51.30;101855.75;5075428;28;885;-57
2021/06/23 02:37:42;;;;;;;;;;;;;;;18.26;51.42;101859.44;5075145;28;1897;-58
2021/06/23 02:40:07;;;;;;;;;;;;;;;18.27;51.40;101850.34;5075364;28;1017;-58
2021/06/23 02:42:32;;;;;;;;;;;;;;;18.29;51.37;101863.72;5075712;28;1657;-58
2021/06/23 02:44:58;;;;;;;;;;;;;;;18.27;51.29;101855.75;5074918;28;1799;-55
2021/06/23 02:47:23;;;;;;;;;;;;;;;18.27;51.54;101858.44;5074895;28;861;-56
2021/06/23 02:49:48;;;;;;;;;;;;;;;18.27;51.97;101863.00;5075550;28;957;-55
2021/06/23 02:52:13;;;;;;;;;;;;;;;18.27;51.89;101866.53;5074947;28;1898;-54
2021/06/23 02:54:38;;;;;;;;;;;;;;;18.28;51.68;101864.69;5075498;28;972;-55
2021/06/23 02:57:03;;;;;;;;;;;;;;;18.26;51.66;101875.66;5075174;28;1925;-58
2021/06/23 02:59:28;;;;;;;;;;;;;;;18.26;52.14;101874.78;5075056;28;835;-58
2021/06/23 03:01:53;;;;;;;;;;;;;;;18.25;51.90;101873.94;5075241;28;870;-58
2021/06/23 03:04:18;;;;;;;;;;;;;;;18.24;51.78;101872.22;5075361;28;854;-54
2021/06/23 03:06:44;;;;;;;;;;;;;;;18.24;51.72;101880.31;5075365;28;877;-56
2021/06/23 03:09:09;;;;;;;;;;;;;;;18.24;52.23;101876.75;5075036;28;1941;-56
2021/06/23 03:11:34;;;;;;;;;;;;;;;18.22;52.01;101882.25;5075112;28;1918;-57
2021/06/23 03:13:59;;;;;;;;;;;;;;;18.22;51.78;101884.09;5075076;28;844;-56
2021/06/23 03:16:24;;;;;;;;;;;;;;;18.21;51.80;101877.00;5074944;28;843;-55
2021/06/23 03:18:49;;;;;;;;;;;;;;;18.19;51.73;101881.66;5075327;28;917;-56
2021/06/23 03:21:14;;;;;;;;;;;;;;;18.19;51.96;101878.94;5060703;28;1819;-56
2021/06/23 03:23:39;;;;;;;;;;;;;;;18.20;52.34;101884.22;5054474;28;807;-58
2021/06/23 03:26:05;;;;;;;;;;;;;;;18.19;52.40;101882.50;5054846;28;803;-58
2021/06/23 03:28:30;;;;;;;;;;;;;;;18.19;51.91;101874.41;5057705;28;841;-58
2021/06/23 03:30:55;;;;;;;;;;;;;;;18.19;52.17;101869.00;5059412;28;1959;-58
2021/06/23 03:33:20;;;;;;;;;;;;;;;18.18;52.29;101880.78;5059482;28;2009;-58
2021/06/23 03:35:45;;;;;;;;;;;;;;;18.17;52.29;101884.47;5058899;28;905;-58
2021/06/23 03:38:10;;;;;;;;;;;;;;;18.17;52.04;101879.06;5059494;28;881;-58
2021/06/23 03:40:35;;;;;;;;;;;;;;;18.18;52.22;101883.50;5058492;28;889;-58
2021/06/23 03:43:00;;;;;;;;;;;;;;;18.18;52.53;101886.19;5059056;28;853;-58
2021/06/23 03:45:25;;;;;;;;;;;;;;;18.17;52.46;101887.16;5059837;28;2128;-58
2021/06/23 03:47:50;;;;;;;;;;;;;;;18.18;52.10;101885.31;5058601;28;877;-57
2021/06/23 03:50:15;;;;;;;;;;;;;;;18.18;52.27;101894.28;5058708;28;953;-55
2021/06/23 03:52:41;;;;;;;;;;;;;;;18.18;52.29;101890.72;5058709;28;1941;-56
2021/06/23 03:55:06;;;;;;;;;;;;;;;18.17;52.46;101887.16;5069169;28;1902;-57
2021/06/23 03:57:31;;;;;;;;;;;;;;;18.17;52.62;101876.38;5078098;28;1005;-56
2021/06/23 03:59:56;;;;;;;;;;;;;;;18.16;52.29;101888.16;5078558;28;937;-58
2021/06/23 04:02:21;;;;;;;;;;;;;;;18.16;52.28;101880.03;5078260;28;1008;-56
2021/06/23 04:04:46;;;;;;;;;;;;;;;18.17;52.93;101876.38;5078341;28;1060;-58
2021/06/23 04:07:11;;;;;;;;;;;;;;;18.18;52.95;101888.88;5066914;28;1996;-57
2021/06/23 04:09:36;;;;;;;;;;;;;;;18.19;53.01;101889.75;5058485;28;1245;-58
2021/06/23 04:12:01;;;;;;;;;;;;;;;18.18;53.15;101878.09;5058383;28;1934;-58
2021/06/23 04:14:28;;;;;;;;;;;;;;;18.17;52.72;101876.38;5058451;28;1075;-58
2021/06/23 04:16:53;;;;;;;;;;;;;;;18.18;53.08;101883.50;5058387;28;1002;-58
2021/06/23 04:19:18;;;;;;;;;;;;;;;18.18;53.06;101879.94;5040254;28;2081;-58
2021/06/23 04:21:43;;;;;;;;;;;;;;;18.17;53.11;101887.16;5058042;28;787;-58
2021/06/23 04:24:08;;;;;;;;;;;;;;;18.19;53.24;101882.50;5058190;28;920;-59
2021/06/23 04:26:33;;;;;;;;;;;;;;;18.18;53.03;101891.59;5058291;28;969;-58
2021/06/23 04:28:58;;;;;;;;;;;;;;;18.16;53.19;101890.84;5057596;28;1666;-59
2021/06/23 04:31:23;;;;;;;;;;;;;;;18.17;53.69;101889.00;5074460;28;2015;-58
2021/06/23 04:33:48;;;;;;;;;;;;;;;18.18;53.78;101893.41;5077755;28;1008;-58
2021/06/23 04:36:13;;;;;;;;;;;;;;;18.18;53.33;101890.72;5077563;28;933;-58
2021/06/23 04:38:39;;;;;;;;;;;;;;;18.17;53.36;101887.16;5059937;28;2117;-59
2021/06/23 04:41:04;;;;;;;;;;;;;;;18.19;53.11;101885.19;5077496;28;933;-58
2021/06/23 04:43:29;;;;;;;;;;;;;;;18.19;53.40;101887.91;5061969;28;1910;-58
2021/06/23 04:45:54;;;;;;;;;;;;;;;18.19;53.42;101885.19;5057763;28;822;-58
2021/06/23 04:48:19;;;;;;;;;;;;;;;18.19;53.44;101890.59;5057416;28;877;-58
2021/06/23 04:50:44;;;;;;;;;;;;;;;18.20;53.46;101897.72;5057366;28;1068;-57
2021/06/23 04:53:09;;;;;;;;;;;;;;;18.19;53.65;101896.00;5057354;28;1895;-58
2021/06/23 04:55:34;;;;;;;;;;;;;;;18.19;53.26;101890.59;5073491;28;2001;-58
2021/06/23 04:57:59;;;;;;;;;;;;;;;18.18;53.45;101894.28;5076986;28;993;-58
2021/06/23 05:00:24;;;;;;;;;;;;;;;18.19;53.19;101896.00;5075894;28;1891;-56
2021/06/23 05:02:50;;;;;;;;;;;;;;;18.21;53.16;101902.13;5077175;28;868;-53
2021/06/23 05:05:15;;;;;;;;;;;;;;;18.20;53.31;101896.84;5077229;28;851;-52
2021/06/23 05:07:40;;;;;;;;;;;;;;;18.22;53.55;101906.53;5076918;28;1874;-55
2021/06/23 05:10:05;;;;;;;;;;;;;;;18.26;53.48;101902.63;5077021;28;1519;-59
2021/06/23 05:12:30;;;;;;;;;;;;;;;18.29;53.48;101907.75;5077098;28;1909;-58
2021/06/23 05:14:55;;;;;;;;;;;;;;;18.32;53.49;101907.50;5076648;28;1527;-58
2021/06/23 05:17:20;;;;;;;;;;;;;;;18.33;52.81;101909.22;5076505;28;1716;-58
2021/06/23 05:19:45;;;;;;;;;;;;;;;18.34;53.28;101908.25;5076897;28;1990;-57
2021/06/23 05:22:10;;;;;;;;;;;;;;;18.36;53.30;101908.13;5077107;28;957;-58
2021/06/23 05:24:36;;;;;;;;;;;;;;;18.36;53.13;101914.38;5077047;28;877;-59
2021/06/23 05:27:01;;;;;;;;;;;;;;;18.38;53.68;101911.56;5076350;28;1918;-58
2021/06/23 05:29:26;;;;;;;;;;;;;;;18.38;53.37;101906.16;5075840;28;1573;-59
2021/06/23 05:31:51;;;;;;;;;;;;;;;18.41;53.40;101916.72;5075889;28;1897;-55
2021/06/23 05:34:16;;;;;;;;;;;;;;;18.40;53.34;101915.00;5076175;28;1557;-58
2021/06/23 05:36:41;;;;;;;;;;;;;;;18.38;53.79;101912.44;5057746;28;1625;-58
2021/06/23 05:39:06;;;;;;;;;;;;;;;18.38;53.72;101917.81;5075470;28;1719;-59
2021/06/23 05:41:31;;;;;;;;;;;;;;;18.39;53.60;101907.88;5075590;28;1712;-58
2021/06/23 05:43:56;;;;;;;;;;;;;;;18.39;53.68;101903.34;5075659;28;1645;-59
2021/06/23 05:46:21;;;;;;;;;;;;;;;18.38;53.78;101915.13;5074852;28;1721;-59
2021/06/23 05:48:46;;;;;;;;;;;;;;;18.37;53.52;101918.81;5075467;28;1715;-58
2021/06/23 05:51:11;;;;;;;;;;;;;;;18.37;53.25;101916.09;5074190;28;1951;-58
2021/06/23 05:53:37;;;;;;;;;;;;;;;18.38;53.22;101917.81;5075597;28;1623;-59
2021/06/23 05:56:02;;;;;;;;;;;;;;;18.37;53.36;101916.09;5074558;28;1640;-59
2021/06/23 05:58:27;;;;;;;;;;;;;;;18.38;53.21;101907.03;5075301;28;1654;-59
2021/06/23 06:00:52;;;;;;;;;;;;;;;18.39;53.17;101906.03;5075487;28;1671;-58
2021/06/23 06:03:17;;;;;;;;;;;;;;;18.39;53.30;101911.44;5075347;28;1693;-58
2021/06/23 06:05:42;;;;;;;;;;;;;;;18.41;53.37;101911.31;5075518;28;1732;-57
2021/06/23 06:08:07;;;;;;;;;;;;;;;18.42;53.51;101909.47;5074889;28;1741;-57
2021/06/23 06:10:33;;;;;;;;;;;;;;;18.43;53.82;101914.75;5057434;28;1885;-58
2021/06/23 06:12:58;;;;;;;;;;;;;;;18.43;53.91;101908.50;5074553;28;1952;-57
2021/06/23 06:15:23;;;;;;;;;;;;;;;18.44;53.61;101911.06;5075449;28;1599;-58
2021/06/23 06:17:49;;;;;;;;;;;;;;;18.46;53.78;101916.31;5075469;28;1890;-58
2021/06/23 06:20:14;;;;;;;;;;;;;;;18.45;53.83;101917.34;5075393;28;1878;-58
2021/06/23 06:22:39;;;;;;;;;;;;;;;18.46;53.51;101921.72;5075800;28;875;-59
2021/06/23 06:25:04;;;;;;;;;;;;;;;18.46;53.59;101929.81;5075371;28;892;-58
2021/06/23 06:27:29;;;;;;;;;;;;;;;18.46;53.58;101924.41;5074927;28;1898;-58
2021/06/23 06:29:54;;;;;;;;;;;;;;;18.49;53.65;101929.56;5075277;28;905;-57
2021/06/23 06:32:19;;;;;;;;;;;;;;;18.50;53.83;101926.75;5075362;28;1894;-58
2021/06/23 06:34:44;;;;;;;;;;;;;;;18.53;53.60;101920.25;5057038;28;905;-58
2021/06/23 06:37:09;;;;;;;;;;;;;;;18.53;53.61;101928.34;5075357;28;1260;-57
2021/06/23 06:39:34;;;;;;;;;;;;;;;18.54;53.75;101924.66;5074941;28;1968;-57
2021/06/23 06:42:00;;;;;;;;;;;;;;;18.56;53.84;101928.09;5075582;28;854;-58
2021/06/23 06:44:29;;;;;;;;;;;;;;;18.58;53.29;101926.16;5075241;28;1171;-58
2021/06/23 06:46:54;;;;;;;;;;;;;;;18.59;53.44;101930.59;5073734;28;1881;-58
2021/06/23 06:49:19;;;;;;;;;;;;;;;18.59;52.71;101925.19;5072147;28;1635;-59
2021/06/23 06:51:44;;;;;;;;;;;;;;;18.62;53.14;101933.91;5047434;28;1945;-58
2021/06/23 06:54:09;;;;;;;;;;;;;;;18.65;53.25;101930.06;5074414;28;1762;-58
2021/06/23 06:56:34;;;;;;;;;;;;;;;18.67;53.30;101936.22;5075040;28;1923;-58
2021/06/23 06:58:59;;;;;;;;;;;;;;;18.68;53.37;101932.53;5074572;28;1883;-58
2021/06/23 07:01:24;;;;;;;;;;;;;;;18.71;53.19;101940.38;5074328;28;1782;-57
2021/06/23 07:03:49;;;;;;;;;;;;;;;18.69;53.23;101945.06;5074118;28;1731;-59
2021/06/23 07:06:15;;;;;;;;;;;;;;;18.65;53.73;101940.88;5074321;28;1841;-59
2021/06/23 07:08:40;;;;;;;;;;;;;;;18.63;53.48;101942.88;5074629;28;1533;-59
2021/06/23 07:11:05;;;;;;;;;;;;;;;18.62;53.15;101946.56;5074735;28;1977;-59
2021/06/23 07:13:31;;;;;;;;;;;;;;;18.63;53.48;101949.09;5075170;28;1009;-59
2021/06/23 07:15:56;;;;;;;;;;;;;;;18.64;53.42;101949.97;5074841;28;846;-58
2021/06/23 07:18:23;;;;;;;;;;;;;;;18.64;52.67;101950.81;5075193;28;1941;-59
2021/06/23 07:20:48;;;;;;;;;;;;;;;18.67;53.23;101947.00;5075171;28;1637;-59
2021/06/23 07:23:13;;;;;;;;;;;;;;;18.69;53.03;101953.16;5075236;28;850;-59
2021/06/23 07:25:38;;;;;;;;;;;;;;;18.70;52.61;101950.31;5074582;28;1890;-58
2021/06/23 07:28:03;;;;;;;;;;;;;;;18.71;52.81;101935.84;5075063;28;853;-59
2021/06/23 07:30:29;;;;;;;;;;;;;;;18.76;53.06;101943.56;5074813;28;1960;-59
2021/06/23 07:33:00;;;;;;;;;;;;;;;18.79;52.51;101946.03;5075044;28;1971;-59
2021/06/23 07:38:14;;;;;;;;;;;;;;;18.84;52.53;101943.78;5071665;28;1433;-59
2021/06/23 07:43:10;;;;;;;;;;;;;;;18.81;53.00;101944.03;5074297;28;1771;-59
2021/06/23 07:45:36;;;;;;;;;;;;;;;18.79;53.07;101943.34;5073449;28;1523;-59
2021/06/23 07:48:01;;;;;;;;;;;;;;;18.81;52.69;101941.34;5074744;28;1586;-59
2021/06/23 07:50:31;;;;;;;;;;;;;;;18.83;52.83;101933.97;5074657;28;901;-59
2021/06/23 07:53:07;;;;;;;;;;;;;;;18.80;53.40;101939.66;5074391;28;1921;-59
2021/06/23 08:09:17;;;;;;;;;;;;;;;18.79;53.64;101954.13;5073565;28;1585;-59
2021/06/23 08:11:46;;;;;;;;;;;;;;;18.77;53.32;101952.53;5074018;28;1985;-59
2021/06/23 08:14:11;;;;;;;;;;;;;;;18.77;52.91;101945.28;5074147;28;1964;-59
2021/06/23 08:16:36;;;;;;;;;;;;;;;18.77;53.45;101950.69;5078412;28;877;-58
2021/06/23 08:19:01;;;;;;;;;;;;;;;18.74;53.08;101945.53;5078031;28;835;-58
2021/06/23 08:21:27;;;;;;;;;;;;;;;18.74;53.30;101948.25;5077632;28;1067;-59
2021/06/23 08:23:52;;;;;;;;;;;;;;;18.74;53.85;101950.94;5077459;28;1882;-58
2021/06/23 08:26:17;;;;;;;;;;;;;;;18.75;53.94;101951.81;5060349;28;846;-58
2021/06/23 08:28:42;;;;;;;;;;;;;;;18.74;53.74;101961.75;5076496;28;1712;-58
2021/06/23 08:31:07;;;;;;;;;;;;;;;18.71;53.75;101954.75;5076285;28;1951;-58
2021/06/23 08:33:32;;;;;;;;;;;;;;;18.71;53.62;101962.84;5076727;28;1687;-59
2021/06/23 08:35:57;;;;;;;;;;;;;;;18.74;53.54;101964.44;5077154;28;2052;-58
2021/06/23 08:38:22;;;;;;;;;;;;;;;18.73;53.09;101968.13;5077590;28;1851;-58
2021/06/23 08:40:47;;;;;;;;;;;;;;;18.72;53.70;101972.66;5077731;28;1944;-58
2021/06/23 08:43:13;;;;;;;;;;;;;;;18.73;53.17;101970.81;5077328;28;1744;-58
2021/06/23 08:45:38;;;;;;;;;;;;;;;18.74;53.00;101969.84;5056552;28;1699;-58
2021/06/23 08:48:03;;;;;;;;;;;;;;;18.75;53.80;101962.59;5077181;28;1593;-59
2021/06/23 08:50:28;;;;;;;;;;;;;;;18.74;53.05;101956.34;5075311;28;2090;-59
2021/06/23 08:52:53;;;;;;;;;;;;;;;18.75;52.89;101960.75;5076915;28;1959;-60
2021/06/23 08:55:22;;;;;;;;;;;;;;;18.76;53.11;101962.47;5076379;28;1785;-59
2021/06/23 08:57:47;;;;;;;;;;;;;;;18.76;52.96;101965.19;5076257;28;1796;-59
2021/06/23 09:00:13;;;;;;;;;;;;;;;18.75;52.96;101963.47;5077294;28;1505;-59
2021/06/23 09:02:38;;;;;;;;;;;;;;;18.77;53.12;101961.50;5076792;28;1409;-59
2021/06/23 09:05:03;;;;;;;;;;;;;;;18.78;53.10;101959.66;5076475;28;1723;-60
2021/06/23 09:07:28;;;;;;;;;;;;;;;18.80;52.83;101965.78;5076530;28;1566;-57
2021/06/23 09:09:53;;;;;;;;;;;;;;;18.79;53.00;101964.94;5076558;28;1634;-58
2021/06/23 09:12:18;;;;;;;;;;;;;;;18.80;52.76;101966.66;5076425;28;1977;-59
2021/06/23 09:14:43;;;;;;;;;;;;;;;18.80;53.26;101969.34;5059075;28;1706;-58
2021/06/23 09:17:08;;;;;;;;;;;;;;;18.79;52.34;101969.47;5076806;28;854;-58
2021/06/23 09:19:33;;;;;;;;;;;;;;;18.79;52.69;101970.34;5077087;28;1627;-58
2021/06/23 09:21:59;;;;;;;;;;;;;;;18.81;52.69;101968.34;5077077;28;953;-57
2021/06/23 09:24:24;;;;;;;;;;;;;;;18.82;52.96;101966.50;5076840;28;1906;-58
2021/06/23 09:26:49;;;;;;;;;;;;;;;18.82;52.95;101974.59;5076030;28;1560;-58
2021/06/23 09:29:14;;;;;;;;;;;;;;;18.82;52.64;101970.06;5055792;28;1825;-59
2021/06/23 09:31:39;;;;;;;;;;;;;;;18.84;52.65;101975.34;5069882;28;1896;-59
2021/06/23 09:34:04;;;;;;;;;;;;;;;18.84;52.72;101973.50;5069575;28;1659;-59
2021/06/23 09:36:29;;;;;;;;;;;;;;;18.84;52.38;101972.63;5056630;28;1390;-58
2021/06/23 09:38:54;;;;;;;;;;;;;;;18.83;53.09;101969.06;5074913;28;1526;-58
2021/06/23 09:41:19;;;;;;;;;;;;;;;18.84;52.72;101969.94;5076268;28;1720;-58
2021/06/23 09:43:44;;;;;;;;;;;;;;;18.83;52.66;101977.19;5076284;28;1601;-58
2021/06/23 09:46:10;;;;;;;;;;;;;;;18.83;53.02;101977.19;5076069;28;953;-59
2021/06/23 09:48:35;;;;;;;;;;;;;;;18.85;52.77;101971.66;5076746;28;1701;-59
2021/06/23 09:51:00;;;;;;;;;;;;;;;18.85;52.97;101975.22;5075865;28;1721;-59
2021/06/23 09:53:25;;;;;;;;;;;;;;;18.85;52.67;101975.22;5075603;28;1889;-60
2021/06/23 09:55:50;;;;;;;;;;;;;;;18.86;52.86;101971.53;5075481;28;1898;-59
2021/06/23 09:58:16;;;;;;;;;;;;;;;18.85;53.01;101968.97;5075898;28;1707;-59
2021/06/23 10:00:41;;;;;;;;;;;;;;;18.80;52.67;101968.50;5075534;28;1564;-59
2021/06/23 10:03:06;;;;;;;;;;;;;;;18.83;52.64;101977.19;5076321;28;1757;-59
2021/06/23 10:05:31;;;;;;;;;;;;;;;18.86;52.46;101976.06;5067904;28;2003;-59
2021/06/23 10:07:57;;;;;;;;;;;;;;;18.85;52.77;101977.06;5071846;28;1695;-60
2021/06/23 10:10:22;;;;;;;;;;;;;;;18.88;53.05;101988.47;5076278;28;1632;-59
2021/06/23 10:12:47;;;;;;;;;;;;;;;18.89;52.25;101983.94;5075568;28;1963;-59
2021/06/23 10:15:12;;;;;;;;;;;;;;;18.80;52.05;101990.09;5075258;28;1650;-59
2021/06/23 10:17:37;;;;;;;;;;;;;;;18.76;52.16;101985.94;5075724;28;992;-59
2021/06/23 10:20:02;;;;;;;;;;;;;;;18.70;51.92;101981.88;5076155;28;865;-59
2021/06/23 10:22:27;;;;;;;;;;;;;;;18.69;51.78;101985.56;5075530;28;1570;-60
2021/06/23 10:24:53;;;;;;;;;;;;;;;18.67;51.70;101993.78;5075200;28;1743;-59
2021/06/23 10:27:18;;;;;;;;;;;;;;;18.66;51.82;101988.50;5075020;28;1737;-58
2021/06/23 10:29:43;;;;;;;;;;;;;;;18.66;51.69;101988.50;5075298;28;1580;-59
2021/06/23 10:32:08;;;;;;;;;;;;;;;18.67;51.43;101982.97;5075511;28;1875;-59
2021/06/23 10:34:33;;;;;;;;;;;;;;;18.69;51.22;101980.16;5075421;28;1940;-59
2021/06/23 10:36:58;;;;;;;;;;;;;;;18.70;51.65;101977.34;5074988;28;1008;-59
2021/06/23 10:39:23;;;;;;;;;;;;;;;18.72;51.57;101975.38;5056693;28;1910;-59
2021/06/23 10:41:48;;;;;;;;;;;;;;;18.70;51.12;101971.94;5075948;28;862;-57
2021/06/23 10:44:13;;;;;;;;;;;;;;;18.72;51.35;101975.38;5075478;28;1969;-57
2021/06/23 10:46:39;;;;;;;;;;;;;;;18.71;50.86;101978.19;5075316;28;798;-56
2021/06/23 10:49:04;;;;;;;;;;;;;;;18.67;50.54;101987.50;5074227;28;1592;-58
2021/06/23 10:51:29;;;;;;;;;;;;;;;18.63;51.17;101986.06;5073933;28;1953;-58
2021/06/23 10:53:54;;;;;;;;;;;;;;;18.65;51.07;101986.78;5054996;28;1673;-58
2021/06/23 10:56:19;;;;;;;;;;;;;;;18.70;51.19;101981.88;5074973;28;1634;-58
2021/06/23 10:58:45;;;;;;;;;;;;;;;18.77;50.95;101993.03;5049854;28;1765;-58
2021/06/23 11:01:10;;;;;;;;;;;;;;;18.81;50.91;101979.16;5074656;28;1811;-58
2021/06/23 11:03:35;;;;;;;;;;;;;;;18.83;51.21;101988.00;5074285;28;1793;-59
2021/06/23 11:06:01;;;;;;;;;;;;;;;18.86;51.54;101985.03;5075015;28;1608;-59
2021/06/23 11:08:26;;;;;;;;;;;;;;;18.85;51.17;101991.41;5074091;28;1652;-58
2021/06/23 11:10:51;;;;;;;;;;;;;;;18.84;51.56;101978.03;5074916;28;1625;-59
2021/06/23 11:13:16;;;;;;;;;;;;;;;18.80;51.58;101979.31;5074870;28;1992;-59
2021/06/23 11:15:42;;;;;;;;;;;;;;;18.74;51.99;101977.94;5075064;28;1984;-59
2021/06/23 11:18:07;;;;;;;;;;;;;;;18.74;51.54;101977.94;5074630;28;1482;-59
2021/06/23 11:20:32;;;;;;;;;;;;;;;18.84;51.38;101989.69;5074927;28;1584;-59
2021/06/23 11:22:57;;;;;;;;;;;;;;;18.91;52.25;101988.22;5071963;28;1635;-58
2021/06/23 11:25:22;;;;;;;;;;;;;;;18.95;52.02;101991.53;5074277;28;1792;-58
2021/06/23 11:27:47;;;;;;;;;;;;;;;19.00;51.85;101984.75;5071549;28;1685;-58
2021/06/23 11:30:12;;;;;;;;;;;;;;;19.06;51.82;101988.81;5073820;28;1591;-59
2021/06/23 11:32:38;;;;;;;;;;;;;;;19.10;51.67;101992.97;5073974;28;1886;-57
2021/06/23 11:35:03;;;;;;;;;;;;;;;19.15;51.21;101984.50;5074696;28;1459;-58
2021/06/23 11:37:29;;;;;;;;;;;;;;;19.21;51.62;101983.97;5071640;28;1545;-58
2021/06/23 11:39:54;;;;;;;;;;;;;;;19.20;51.54;101979.56;5073147;28;1611;-57
2021/06/23 11:42:19;;;;;;;;;;;;;;;19.21;51.57;101992.94;5074552;28;1740;-58
2021/06/23 11:44:44;;;;;;;;;;;;;;;19.20;51.53;101984.97;5075037;28;836;-59
2021/06/23 11:47:09;;;;;;;;;;;;;;;19.23;51.78;101973.91;5074704;28;850;-58
2021/06/23 11:49:34;;;;;;;;;;;;;;;19.25;51.93;101971.94;5077158;28;1901;-58
2021/06/23 11:51:59;;;;;;;;;;;;;;;19.27;52.02;101980.75;5078698;28;1882;-59
2021/06/23 11:54:25;;;;;;;;;;;;;;;19.29;52.07;101981.50;5078805;28;1084;-57
2021/06/23 11:56:50;;;;;;;;;;;;;;;19.30;51.94;101975.09;5078483;28;948;-59
2021/06/23 11:59:15;;;;;;;;;;;;;;;19.31;52.08;101979.53;5078124;28;1953;-59
2021/06/23 12:01:40;;;;;;;;;;;;;;;19.30;51.96;101975.09;5078091;28;1936;-58
2021/06/23 12:04:05;;;;;;;;;;;;;;;19.33;51.80;101981.13;5078612;28;969;-58
2021/06/23 12:06:30;;;;;;;;;;;;;;;19.35;51.96;101987.22;5077489;28;2002;-59
2021/06/23 12:08:55;;;;;;;;;;;;;;;19.35;52.02;101986.38;5077504;28;1788;-58
2021/06/23 12:11:20;;;;;;;;;;;;;;;19.32;51.58;101978.56;5078657;28;1910;-57
2021/06/23 12:13:45;;;;;;;;;;;;;;;19.33;51.89;101981.13;5078088;28;1072;-58
2021/06/23 12:16:10;;;;;;;;;;;;;;;19.40;52.03;101986.84;5078420;28;1533;-58
2021/06/23 12:18:36;;;;;;;;;;;;;;;19.40;51.62;101981.44;5077704;28;1888;-58
2021/06/23 12:21:01;;;;;;;;;;;;;;;19.40;51.53;101979.59;5077921;28;1925;-58
2021/06/23 12:23:26;;;;;;;;;;;;;;;19.39;52.28;101969.78;5078068;28;881;-57
2021/06/23 12:25:51;;;;;;;;;;;;;;;19.40;52.09;101965.22;5078462;28;1643;-58
2021/06/23 12:28:16;;;;;;;;;;;;;;;19.44;52.32;101955.88;5077939;28;1874;-58
2021/06/23 12:30:41;;;;;;;;;;;;;;;19.41;52.07;101962.41;5075105;28;1835;-60
2021/06/23 12:33:10;;;;;;;;;;;;;;;19.46;51.79;101966.56;5077122;28;1885;-59
2021/06/23 12:35:35;;;;;;;;;;;;;;;19.43;51.67;101965.84;5077135;28;1530;-60
2021/06/23 12:38:00;;;;;;;;;;;;;;;19.50;52.29;101971.63;5077368;28;1638;-58
2021/06/23 12:40:25;;;;;;;;;;;;;;;19.54;52.09;101964.94;5077196;28;1998;-58
2021/06/23 12:42:50;;;;;;;;;;;;;;;19.48;51.82;101970.00;5077469;28;799;-59
2021/06/23 12:45:15;;;;;;;;;;;;;;;19.47;52.05;101966.44;5077124;28;842;-58
2021/06/23 12:47:40;;;;;;;;;;;;;;;19.49;52.07;101964.47;5077236;28;1902;-58
2021/06/23 12:50:05;;;;;;;;;;;;;;;19.52;52.10;101957.97;5077726;28;1138;-58
2021/06/23 12:52:30;;;;;;;;;;;;;;;19.51;51.63;101959.81;5077545;28;1967;-58
2021/06/23 12:54:55;;;;;;;;;;;;;;;19.51;51.75;101965.22;5078065;28;1650;-58
2021/06/23 12:57:21;;;;;;;;;;;;;;;19.56;52.17;101959.41;5056128;28;1916;-58